sensor_id;sensor_type;location;lat;lon;timestamp;pressure;altitude;pressure_sealevel;temperature;humidity
19023;BME280;35226;48.606;8.858;2023-03-04T00:00:21;96734.03;;;-0.47;100.00
19023;BME280;35226;48.606;8.858;2023-03-04T00:02:47;96744.06;;;-0.51;100.00
19023;BME280;35226;48.606;8.858;2023-03-04T00:05:13;96741.25;;;-0.54;100.00
19023;BME280;35226;48.606;8.858;2023-03-04T00:07:38;96740.56;;;-0.51;100.00
19023;BME280;35226;48.606;8.858;2023-03-04T00:10:04;96744.41;;;-0.52;100.00
19023;BME280;35226;48.606;8.858;2023-03-04T00:12:30;96736.97;;;-0.55;100.00
19023;BME280;35226;48.606;8.858;2023-03-04T00:14:56;96740.41;;;-0.58;100.00
19023;BME280;35226;48.606;8.858;2023-03-04T00:17:21;96745.47;;;-0.57;100.00
19023;BME280;35226;48.606;8.858;2023-03-04T00:19:47;96745.81;;;-0.58;100.00
19023;BME280;35226;48.606;8.858;2023-03-04T00:22:12;96741.94;;;-0.61;100.00
19023;BME280;35226;48.606;8.858;2023-03-04T00:24:38;96735.28;;;-0.63;100.00
19023;BME280;35226;48.606;8.858;2023-03-04T00:27:03;96735.56;;;-0.68;100.00
19023;BME280;35226;48.606;8.858;2023-03-04T00:29:29;96747.16;;;-0.71;100.00
19023;BME280;35226;48.606;8.858;2023-03-04T00:31:54;96741.66;;;-0.75;100.00
19023;BME280;35226;48.606;8.858;2023-03-04T00:34:20;96742.34;;;-0.78;100.00
19023;BME280;35226;48.606;8.858;2023-03-04T00:36:46;96740.75;;;-0.83;100.00
19023;BME280;35226;48.606;8.858;2023-03-04T00:39:12;96737.94;;;-0.86;100.00
19023;BME280;35226;48.606;8.858;2023-03-04T00:41:38;96737.16;;;-0.87;100.00
19023;BME280;35226;48.606;8.858;2023-03-04T00:44:04;96734.03;;;-0.89;100.00
19023;BME280;35226;48.606;8.858;2023-03-04T00:46:30;96734.03;;;-0.89;100.00
19023;BME280;35226;48.606;8.858;2023-03-04T00:48:56;96732.81;;;-0.91;100.00
19023;BME280;35226;48.606;8.858;2023-03-04T00:51:21;96737.47;;;-0.92;100.00
19023;BME280;35226;48.606;8.858;2023-03-04T00:53:47;96731.59;;;-0.94;100.00
19023;BME280;35226;48.606;8.858;2023-03-04T00:56:13;96733.09;;;-0.96;100.00
19023;BME280;35226;48.606;8.858;2023-03-04T00:58:38;96739.31;;;-0.96;100.00
19023;BME280;35226;48.606;8.858;2023-03-04T01:01:06;96730.75;;;-0.98;100.00
19023;BME280;35226;48.606;8.858;2023-03-04T01:03:31;96728.75;;;-1.01;100.00
19023;BME280;35226;48.606;8.858;2023-03-04T01:05:58;96732.63;;;-1.02;100.00
19023;BME280;35226;48.606;8.858;2023-03-04T01:08:23;96726.75;;;-1.04;100.00
19023;BME280;35226;48.606;8.858;2023-03-04T01:10:51;96726.31;;;-1.06;100.00
19023;BME280;35226;48.606;8.858;2023-03-04T01:13:17;96727.75;;;-1.12;100.00
19023;BME280;35226;48.606;8.858;2023-03-04T01:15:43;96720.84;;;-1.09;100.00
19023;BME280;35226;48.606;8.858;2023-03-04T01:18:09;96731.34;;;-1.08;100.00
19023;BME280;35226;48.606;8.858;2023-03-04T01:20:35;96720.06;;;-1.10;100.00
19023;BME280;35226;48.606;8.858;2023-03-04T01:23:01;96722.69;;;-1.14;100.00
19023;BME280;35226;48.606;8.858;2023-03-04T01:25:26;96724.91;;;-1.19;100.00
19023;BME280;35226;48.606;8.858;2023-03-04T01:27:52;96723.25;;;-1.24;100.00
19023;BME280;35226;48.606;8.858;2023-03-04T01:30:18;96721.69;;;-1.25;100.00
19023;BME280;35226;48.606;8.858;2023-03-04T01:32:44;96713.91;;;-1.26;100.00
19023;BME280;35226;48.606;8.858;2023-03-04T01:35:09;96722.78;;;-1.29;100.00
19023;BME280;35226;48.606;8.858;2023-03-04T01:37:35;96725.47;;;-1.29;100.00
19023;BME280;35226;48.606;8.858;2023-03-04T01:40:01;96730.56;;;-1.28;100.00
19023;BME280;35226;48.606;8.858;2023-03-04T01:42:32;96722.00;;;-1.30;100.00
19023;BME280;35226;48.606;8.858;2023-03-04T01:44:58;96720.34;;;-1.34;100.00
19023;BME280;35226;48.606;8.858;2023-03-04T01:47:27;96728.03;;;-1.36;100.00
19023;BME280;35226;48.606;8.858;2023-03-04T01:49:55;96721.06;;;-1.37;100.00
19023;BME280;35226;48.606;8.858;2023-03-04T01:52:21;96719.50;;;-1.38;100.00
19023;BME280;35226;48.606;8.858;2023-03-04T01:54:47;96724.19;;;-1.35;100.00
19023;BME280;35226;48.606;8.858;2023-03-04T01:57:22;96717.56;;;-1.38;100.00
19023;BME280;35226;48.606;8.858;2023-03-04T02:02:49;96705.50;;;-1.40;100.00
19023;BME280;35226;48.606;8.858;2023-03-04T02:05:15;96707.88;;;-1.39;100.00
19023;BME280;35226;48.606;8.858;2023-03-04T02:07:42;96704.28;;;-1.43;100.00
19023;BME280;35226;48.606;8.858;2023-03-04T02:10:09;96704.56;;;-1.48;100.00
19023;BME280;35226;48.606;8.858;2023-03-04T02:12:35;96701.78;;;-1.52;100.00
19023;BME280;35226;48.606;8.858;2023-03-04T02:15:00;96700.56;;;-1.54;100.00
19023;BME280;35226;48.606;8.858;2023-03-04T02:17:27;96698.63;;;-1.54;100.00
19023;BME280;35226;48.606;8.858;2023-03-04T02:20:16;96699.78;;;-1.55;100.00
19023;BME280;35226;48.606;8.858;2023-03-04T02:22:44;96707.47;;;-1.57;100.00
19023;BME280;35226;48.606;8.858;2023-03-04T02:25:19;96701.91;;;-1.64;100.00
19023;BME280;35226;48.606;8.858;2023-03-04T02:27:47;96696.84;;;-1.65;100.00
19023;BME280;35226;48.606;8.858;2023-03-04T02:30:17;96694.91;;;-1.65;100.00
19023;BME280;35226;48.606;8.858;2023-03-04T02:32:44;96701.41;;;-1.69;100.00
19023;BME280;35226;48.606;8.858;2023-03-04T02:35:15;96700.97;;;-1.71;100.00
19023;BME280;35226;48.606;8.858;2023-03-04T02:37:42;96704.03;;;-1.73;100.00
19023;BME280;35226;48.606;8.858;2023-03-04T02:40:27;96699.41;;;-1.72;100.00
19023;BME280;35226;48.606;8.858;2023-03-04T02:42:54;96704.38;;;-1.74;100.00
19023;BME280;35226;48.606;8.858;2023-03-04T02:45:39;96698.19;;;-1.75;100.00
19023;BME280;35226;48.606;8.858;2023-03-04T02:48:07;96702.53;;;-1.70;100.00
19023;BME280;35226;48.606;8.858;2023-03-04T02:50:42;96699.50;;;-1.69;100.00
19023;BME280;35226;48.606;8.858;2023-03-04T02:53:09;96705.25;;;-1.70;100.00
19023;BME280;35226;48.606;8.858;2023-03-04T02:55:34;96697.91;;;-1.70;100.00
19023;BME280;35226;48.606;8.858;2023-03-04T02:58:00;96700.97;;;-1.71;100.00
19023;BME280;35226;48.606;8.858;2023-03-04T03:00:27;96695.91;;;-1.73;100.00
19023;BME280;35226;48.606;8.858;2023-03-04T03:02:53;96697.38;;;-1.75;100.00
19023;BME280;35226;48.606;8.858;2023-03-04T03:05:23;96696.19;;;-1.78;100.00
19023;BME280;35226;48.606;8.858;2023-03-04T03:07:49;96700.38;;;-1.80;100.00
19023;BME280;35226;48.606;8.858;2023-03-04T03:10:15;96700.22;;;-1.88;100.00
19023;BME280;35226;48.606;8.858;2023-03-04T03:12:41;96703.19;;;-1.93;100.00
19023;BME280;35226;48.606;8.858;2023-03-04T03:15:07;96696.56;;;-1.95;100.00
19023;BME280;35226;48.606;8.858;2023-03-04T03:17:33;96698.06;;;-1.98;100.00
19023;BME280;35226;48.606;8.858;2023-03-04T03:19:58;96699.91;;;-2.02;100.00
19023;BME280;35226;48.606;8.858;2023-03-04T03:22:24;96698.75;;;-2.01;100.00
19023;BME280;35226;48.606;8.858;2023-03-04T03:24:50;96700.59;;;-2.05;100.00
19023;BME280;35226;48.606;8.858;2023-03-04T03:27:15;96703.59;;;-2.10;100.00
19023;BME280;35226;48.606;8.858;2023-03-04T03:29:41;96696.50;;;-2.14;100.00
19023;BME280;35226;48.606;8.858;2023-03-04T03:32:07;96704.56;;;-2.18;100.00
19023;BME280;35226;48.606;8.858;2023-03-04T03:34:33;96707.63;;;-2.19;100.00
19023;BME280;35226;48.606;8.858;2023-03-04T03:36:58;96704.81;;;-2.23;100.00
19023;BME280;35226;48.606;8.858;2023-03-04T03:39:24;96702.88;;;-2.22;100.00
19023;BME280;35226;48.606;8.858;2023-03-04T03:41:49;96701.25;;;-2.27;100.00
19023;BME280;35226;48.606;8.858;2023-03-04T03:44:15;96696.88;;;-2.32;100.00
19023;BME280;35226;48.606;8.858;2023-03-04T03:46:40;96701.16;;;-2.31;100.00
19023;BME280;35226;48.606;8.858;2023-03-04T03:49:06;96702.97;;;-2.35;100.00
19023;BME280;35226;48.606;8.858;2023-03-04T03:51:31;96698.72;;;-2.36;100.00
19023;BME280;35226;48.606;8.858;2023-03-04T03:53:57;96699.84;;;-2.37;100.00
19023;BME280;35226;48.606;8.858;2023-03-04T03:56:22;96702.81;;;-2.42;100.00
19023;BME280;35226;48.606;8.858;2023-03-04T03:58:48;96708.56;;;-2.43;100.00
19023;BME280;35226;48.606;8.858;2023-03-04T04:01:13;96706.59;;;-2.46;100.00
19023;BME280;35226;48.606;8.858;2023-03-04T04:03:39;96707.38;;;-2.46;100.00
19023;BME280;35226;48.606;8.858;2023-03-04T04:06:04;96705.06;;;-2.44;100.00
19023;BME280;35226;48.606;8.858;2023-03-04T04:08:30;96708.06;;;-2.49;100.00
19023;BME280;35226;48.606;8.858;2023-03-04T04:10:58;96705.78;;;-2.47;100.00
19023;BME280;35226;48.606;8.858;2023-03-04T04:13:23;96704.66;;;-2.46;100.00
19023;BME280;35226;48.606;8.858;2023-03-04T04:15:53;96704.22;;;-2.48;100.00
19023;BME280;35226;48.606;8.858;2023-03-04T04:18:18;96706.47;;;-2.50;100.00
19023;BME280;35226;48.606;8.858;2023-03-04T04:20:44;96702.31;;;-2.47;100.00
19023;BME280;35226;48.606;8.858;2023-03-04T04:23:10;96697.13;;;-2.52;100.00
19023;BME280;35226;48.606;8.858;2023-03-04T04:25:35;96694.44;;;-2.52;100.00
19023;BME280;35226;48.606;8.858;2023-03-04T04:28:01;96693.91;;;-2.58;100.00
19023;BME280;35226;48.606;8.858;2023-03-04T04:30:27;96704.28;;;-2.60;100.00
19023;BME280;35226;48.606;8.858;2023-03-04T04:32:52;96700.47;;;-2.59;100.00
19023;BME280;35226;48.606;8.858;2023-03-04T04:35:18;96699.22;;;-2.62;100.00
19023;BME280;35226;48.606;8.858;2023-03-04T04:37:44;96696.44;;;-2.65;100.00
19023;BME280;35226;48.606;8.858;2023-03-04T04:40:10;96696.34;;;-2.69;100.00
19023;BME280;35226;48.606;8.858;2023-03-04T04:42:35;96700.09;;;-2.73;100.00
19023;BME280;35226;48.606;8.858;2023-03-04T04:45:01;96700.81;;;-2.76;100.00
19023;BME280;35226;48.606;8.858;2023-03-04T04:47:26;96700.34;;;-2.78;100.00
19023;BME280;35226;48.606;8.858;2023-03-04T04:49:52;96696.88;;;-2.79;100.00
19023;BME280;35226;48.606;8.858;2023-03-04T04:52:17;96692.47;;;-2.83;100.00
19023;BME280;35226;48.606;8.858;2023-03-04T04:54:43;96703.13;;;-2.90;100.00
19023;BME280;35226;48.606;8.858;2023-03-04T04:57:08;96701.22;;;-2.90;100.00
19023;BME280;35226;48.606;8.858;2023-03-04T04:59:34;96710.72;;;-2.96;100.00
19023;BME280;35226;48.606;8.858;2023-03-04T05:01:59;96691.78;;;-2.96;100.00
19023;BME280;35226;48.606;8.858;2023-03-04T05:04:25;96704.75;;;-3.02;100.00
19023;BME280;35226;48.606;8.858;2023-03-04T05:06:51;96708.25;;;-3.01;100.00
19023;BME280;35226;48.606;8.858;2023-03-04T05:09:16;96714.44;;;-3.01;100.00
19023;BME280;35226;48.606;8.858;2023-03-04T05:11:42;96701.19;;;-3.06;100.00
19023;BME280;35226;48.606;8.858;2023-03-04T05:14:07;96701.41;;;-3.11;100.00
19023;BME280;35226;48.606;8.858;2023-03-04T05:16:33;96704.13;;;-3.11;100.00
19023;BME280;35226;48.606;8.858;2023-03-04T05:18:58;96704.84;;;-3.14;100.00
19023;BME280;35226;48.606;8.858;2023-03-04T05:21:24;96705.41;;;-3.20;100.00
19023;BME280;35226;48.606;8.858;2023-03-04T05:23:49;96696.97;;;-3.19;100.00
19023;BME280;35226;48.606;8.858;2023-03-04T05:26:16;96704.97;;;-3.22;100.00
19023;BME280;35226;48.606;8.858;2023-03-04T05:28:42;96700.72;;;-3.23;100.00
19023;BME280;35226;48.606;8.858;2023-03-04T05:31:08;96698.00;;;-3.23;100.00
19023;BME280;35226;48.606;8.858;2023-03-04T05:33:34;96698.34;;;-3.25;100.00
19023;BME280;35226;48.606;8.858;2023-03-04T05:36:01;96695.53;;;-3.28;100.00
19023;BME280;35226;48.606;8.858;2023-03-04T05:38:26;96697.44;;;-3.29;100.00
19023;BME280;35226;48.606;8.858;2023-03-04T05:41:04;96692.50;;;-3.27;100.00
19023;BME280;35226;48.606;8.858;2023-03-04T05:43:31;96704.53;;;-3.24;100.00
19023;BME280;35226;48.606;8.858;2023-03-04T05:45:58;96705.66;;;-3.25;100.00
19023;BME280;35226;48.606;8.858;2023-03-04T05:48:24;96703.63;;;-3.28;100.00
19023;BME280;35226;48.606;8.858;2023-03-04T05:50:57;96707.91;;;-3.27;100.00
19023;BME280;35226;48.606;8.858;2023-03-04T05:53:23;96708.16;;;-3.32;100.00
19023;BME280;35226;48.606;8.858;2023-03-04T05:55:49;96709.72;;;-3.31;100.00
19023;BME280;35226;48.606;8.858;2023-03-04T05:58:15;96705.25;;;-3.40;100.00
19023;BME280;35226;48.606;8.858;2023-03-04T06:00:41;96712.22;;;-3.39;100.00
19023;BME280;35226;48.606;8.858;2023-03-04T06:03:13;96711.78;;;-3.41;100.00
19023;BME280;35226;48.606;8.858;2023-03-04T06:05:39;96715.38;;;-3.37;100.00
19023;BME280;35226;48.606;8.858;2023-03-04T06:08:05;96714.69;;;-3.33;100.00
19023;BME280;35226;48.606;8.858;2023-03-04T06:10:30;96723.59;;;-3.33;100.00
19023;BME280;35226;48.606;8.858;2023-03-04T06:12:57;96731.34;;;-3.31;100.00
19023;BME280;35226;48.606;8.858;2023-03-04T06:15:22;96731.25;;;-3.35;100.00
19023;BME280;35226;48.606;8.858;2023-03-04T06:17:48;96731.69;;;-3.33;100.00
19023;BME280;35226;48.606;8.858;2023-03-04T06:20:13;96726.28;;;-3.33;100.00
19023;BME280;35226;48.606;8.858;2023-03-04T06:22:39;96732.03;;;-3.34;100.00
19023;BME280;35226;48.606;8.858;2023-03-04T06:25:05;96727.84;;;-3.32;100.00
19023;BME280;35226;48.606;8.858;2023-03-04T06:27:31;96728.63;;;-3.31;100.00
19023;BME280;35226;48.606;8.858;2023-03-04T06:30:00;96734.81;;;-3.31;100.00
19023;BME280;35226;48.606;8.858;2023-03-04T06:32:26;96744.63;;;-3.26;100.00
19023;BME280;35226;48.606;8.858;2023-03-04T06:34:52;96752.72;;;-3.26;100.00
19023;BME280;35226;48.606;8.858;2023-03-04T06:37:18;96747.41;;;-3.23;100.00
19023;BME280;35226;48.606;8.858;2023-03-04T06:39:43;96752.81;;;-3.23;100.00
19023;BME280;35226;48.606;8.858;2023-03-04T06:42:09;96760.56;;;-3.21;100.00
19023;BME280;35226;48.606;8.858;2023-03-04T06:44:35;96763.72;;;-3.19;100.00
19023;BME280;35226;48.606;8.858;2023-03-04T06:47:00;96770.03;;;-3.15;100.00
19023;BME280;35226;48.606;8.858;2023-03-04T06:49:26;96770.31;;;-3.05;100.00
19023;BME280;35226;48.606;8.858;2023-03-04T06:51:51;96771.03;;;-2.92;100.00
19023;BME280;35226;48.606;8.858;2023-03-04T06:54:17;96761.28;;;-2.96;100.00
19023;BME280;35226;48.606;8.858;2023-03-04T06:56:43;96757.09;;;-2.94;100.00
19023;BME280;35226;48.606;8.858;2023-03-04T06:59:08;96771.16;;;-2.88;100.00
19023;BME280;35226;48.606;8.858;2023-03-04T07:01:34;96775.44;;;-2.87;100.00
19023;BME280;35226;48.606;8.858;2023-03-04T07:04:01;96771.34;;;-2.81;100.00
19023;BME280;35226;48.606;8.858;2023-03-04T07:06:27;96774.94;;;-2.77;100.00
19023;BME280;35226;48.606;8.858;2023-03-04T07:08:53;96775.56;;;-2.68;100.00
19023;BME280;35226;48.606;8.858;2023-03-04T07:11:19;96775.41;;;-2.59;100.00
19023;BME280;35226;48.606;8.858;2023-03-04T07:13:46;96778.22;;;-2.56;100.00
19023;BME280;35226;48.606;8.858;2023-03-04T07:16:15;96773.66;;;-2.52;100.00
19023;BME280;35226;48.606;8.858;2023-03-04T07:18:42;96780.03;;;-2.44;100.00
19023;BME280;35226;48.606;8.858;2023-03-04T07:21:08;96776.75;;;-2.38;100.00
19023;BME280;35226;48.606;8.858;2023-03-04T07:23:34;96781.53;;;-2.31;100.00
19023;BME280;35226;48.606;8.858;2023-03-04T07:26:00;96774.72;;;-2.25;100.00
19023;BME280;35226;48.606;8.858;2023-03-04T07:28:26;96782.16;;;-2.22;100.00
19023;BME280;35226;48.606;8.858;2023-03-04T07:30:51;96782.31;;;-2.15;100.00
19023;BME280;35226;48.606;8.858;2023-03-04T07:33:17;96784.44;;;-2.08;100.00
19023;BME280;35226;48.606;8.858;2023-03-04T07:35:43;96783.81;;;-2.02;100.00
19023;BME280;35226;48.606;8.858;2023-03-04T07:38:08;96783.19;;;-1.95;100.00
19023;BME280;35226;48.606;8.858;2023-03-04T07:40:34;96777.69;;;-1.83;100.00
19023;BME280;35226;48.606;8.858;2023-03-04T07:42:59;96788.00;;;-1.73;100.00
19023;BME280;35226;48.606;8.858;2023-03-04T07:45:26;96796.72;;;-1.64;100.00
19023;BME280;35226;48.606;8.858;2023-03-04T07:47:52;96788.91;;;-1.50;100.00
19023;BME280;35226;48.606;8.858;2023-03-04T07:50:18;96789.22;;;-1.35;100.00
19023;BME280;35226;48.606;8.858;2023-03-04T07:52:46;96793.31;;;-1.26;100.00
19023;BME280;35226;48.606;8.858;2023-03-04T07:55:14;96794.66;;;-1.16;100.00
19023;BME280;35226;48.606;8.858;2023-03-04T07:57:44;96803.91;;;-1.01;100.00
19023;BME280;35226;48.606;8.858;2023-03-04T08:00:13;96803.75;;;-1.08;100.00
19023;BME280;35226;48.606;8.858;2023-03-04T08:02:39;96809.69;;;-1.03;100.00
19023;BME280;35226;48.606;8.858;2023-03-04T08:05:05;96802.91;;;-0.93;100.00
19023;BME280;35226;48.606;8.858;2023-03-04T08:07:31;96796.59;;;-0.78;100.00
19023;BME280;35226;48.606;8.858;2023-03-04T08:09:57;96800.31;;;-0.67;100.00
19023;BME280;35226;48.606;8.858;2023-03-04T08:12:22;96806.69;;;-0.59;100.00
19023;BME280;35226;48.606;8.858;2023-03-04T08:14:51;96806.50;;;-0.47;100.00
19023;BME280;35226;48.606;8.858;2023-03-04T08:17:17;96812.94;;;-0.36;100.00
19023;BME280;35226;48.606;8.858;2023-03-04T08:19:43;96805.34;;;-0.27;100.00
19023;BME280;35226;48.606;8.858;2023-03-04T08:22:09;96810.50;;;-0.22;100.00
19023;BME280;35226;48.606;8.858;2023-03-04T08:24:34;96811.78;;;-0.35;100.00
19023;BME280;35226;48.606;8.858;2023-03-04T08:27:00;96809.44;;;-0.37;100.00
19023;BME280;35226;48.606;8.858;2023-03-04T08:29:26;96810.19;;;-0.59;100.00
19023;BME280;35226;48.606;8.858;2023-03-04T08:31:53;96819.69;;;-0.49;100.00
19023;BME280;35226;48.606;8.858;2023-03-04T08:34:21;96825.47;;;-0.51;100.00
19023;BME280;35226;48.606;8.858;2023-03-04T08:36:47;96830.69;;;-0.61;100.00
19023;BME280;35226;48.606;8.858;2023-03-04T08:39:14;96829.00;;;-0.47;100.00
19023;BME280;35226;48.606;8.858;2023-03-04T08:41:40;96840.19;;;-0.71;100.00
19023;BME280;35226;48.606;8.858;2023-03-04T08:44:06;96839.19;;;-0.63;100.00
19023;BME280;35226;48.606;8.858;2023-03-04T08:46:35;96838.66;;;-0.68;100.00
19023;BME280;35226;48.606;8.858;2023-03-04T08:49:01;96839.59;;;-0.80;100.00
19023;BME280;35226;48.606;8.858;2023-03-04T08:51:27;96851.44;;;-0.88;100.00
19023;BME280;35226;48.606;8.858;2023-03-04T08:53:53;96837.16;;;-0.85;100.00
19023;BME280;35226;48.606;8.858;2023-03-04T08:56:19;96845.59;;;-0.90;100.00
19023;BME280;35226;48.606;8.858;2023-03-04T08:58:44;96846.66;;;-0.76;100.00
19023;BME280;35226;48.606;8.858;2023-03-04T09:01:12;96843.94;;;-0.76;100.00
19023;BME280;35226;48.606;8.858;2023-03-04T09:03:39;96850.94;;;-0.75;100.00
19023;BME280;35226;48.606;8.858;2023-03-04T09:06:05;96853.31;;;-0.73;100.00
19023;BME280;35226;48.606;8.858;2023-03-04T09:08:32;96856.16;;;-0.66;100.00
19023;BME280;35226;48.606;8.858;2023-03-04T09:10:58;96858.03;;;-0.70;100.00
19023;BME280;35226;48.606;8.858;2023-03-04T09:13:24;96858.09;;;-0.66;100.00
19023;BME280;35226;48.606;8.858;2023-03-04T09:15:51;96858.16;;;-0.63;100.00
19023;BME280;35226;48.606;8.858;2023-03-04T09:18:19;96851.59;;;-0.62;100.00
19023;BME280;35226;48.606;8.858;2023-03-04T09:20:46;96849.31;;;-0.60;100.00
19023;BME280;35226;48.606;8.858;2023-03-04T09:23:12;96846.44;;;-0.48;100.00
19023;BME280;35226;48.606;8.858;2023-03-04T09:25:38;96846.38;;;-0.51;100.00
19023;BME280;35226;48.606;8.858;2023-03-04T09:28:05;96849.16;;;-0.48;100.00
19023;BME280;35226;48.606;8.858;2023-03-04T09:30:31;96833.66;;;-0.47;100.00
19023;BME280;35226;48.606;8.858;2023-03-04T09:32:56;96841.41;;;-0.49;100.00
19023;BME280;35226;48.606;8.858;2023-03-04T09:35:22;96841.22;;;-0.56;100.00
19023;BME280;35226;48.606;8.858;2023-03-04T09:37:48;96843.69;;;-0.51;100.00
19023;BME280;35226;48.606;8.858;2023-03-04T09:40:27;96851.94;;;-0.44;100.00
19023;BME280;35226;48.606;8.858;2023-03-04T09:42:57;96840.03;;;-0.40;100.00
19023;BME280;35226;48.606;8.858;2023-03-04T09:45:31;96839.28;;;-0.37;100.00
19023;BME280;35226;48.606;8.858;2023-03-04T09:47:58;96836.72;;;-0.29;100.00
19023;BME280;35226;48.606;8.858;2023-03-04T09:50:25;96841.78;;;-0.28;100.00
19023;BME280;35226;48.606;8.858;2023-03-04T09:53:22;96838.81;;;-0.19;100.00
19023;BME280;35226;48.606;8.858;2023-03-04T09:55:50;96837.22;;;-0.24;100.00
19023;BME280;35226;48.606;8.858;2023-03-04T10:01:21;96832.53;;;-0.04;100.00
19023;BME280;35226;48.606;8.858;2023-03-04T10:03:56;96833.38;;;0.00;100.00
19023;BME280;35226;48.606;8.858;2023-03-04T10:06:23;96832.75;;;0.10;100.00
19023;BME280;35226;48.606;8.858;2023-03-04T10:09:02;96833.19;;;0.12;100.00
19023;BME280;35226;48.606;8.858;2023-03-04T10:17:16;96825.94;;;0.20;100.00
19023;BME280;35226;48.606;8.858;2023-03-04T10:19:51;96835.47;;;0.33;100.00
19023;BME280;35226;48.606;8.858;2023-03-04T10:24:55;96828.63;;;0.43;100.00
19023;BME280;35226;48.606;8.858;2023-03-04T10:27:21;96829.44;;;0.43;100.00
19023;BME280;35226;48.606;8.858;2023-03-04T10:29:48;96830.91;;;0.37;100.00
19023;BME280;35226;48.606;8.858;2023-03-04T10:32:15;96830.06;;;0.59;100.00
19023;BME280;35226;48.606;8.858;2023-03-04T10:34:45;96828.66;;;0.69;100.00
19023;BME280;35226;48.606;8.858;2023-03-04T10:37:11;96832.53;;;0.68;100.00
19023;BME280;35226;48.606;8.858;2023-03-04T10:39:42;96831.78;;;0.71;100.00
19023;BME280;35226;48.606;8.858;2023-03-04T10:47:23;96829.03;;;0.94;100.00
19023;BME280;35226;48.606;8.858;2023-03-04T10:49:57;96820.44;;;0.92;100.00
19023;BME280;35226;48.606;8.858;2023-03-04T10:55:02;96817.50;;;1.04;100.00
19023;BME280;35226;48.606;8.858;2023-03-04T10:57:50;96817.66;;;1.18;100.00
19023;BME280;35226;48.606;8.858;2023-03-04T11:02:43;96818.44;;;1.15;100.00
19023;BME280;35226;48.606;8.858;2023-03-04T11:05:20;96808.59;;;1.07;100.00
19023;BME280;35226;48.606;8.858;2023-03-04T11:07:54;96809.06;;;1.13;100.00
19023;BME280;35226;48.606;8.858;2023-03-04T11:10:21;96812.41;;;1.32;100.00
19023;BME280;35226;48.606;8.858;2023-03-04T11:12:50;96808.84;;;1.28;100.00
19023;BME280;35226;48.606;8.858;2023-03-04T11:15:19;96799.53;;;1.29;100.00
19023;BME280;35226;48.606;8.858;2023-03-04T11:17:49;96801.97;;;1.38;100.00
19023;BME280;35226;48.606;8.858;2023-03-04T11:20:28;96799.94;;;1.31;100.00
19023;BME280;35226;48.606;8.858;2023-03-04T11:22:58;96792.78;;;1.49;100.00
19023;BME280;35226;48.606;8.858;2023-03-04T11:25:34;96788.34;;;1.38;100.00
19023;BME280;35226;48.606;8.858;2023-03-04T11:28:07;96788.97;;;1.58;100.00
19023;BME280;35226;48.606;8.858;2023-03-04T11:30:45;96791.84;;;1.72;100.00
19023;BME280;35226;48.606;8.858;2023-03-04T11:33:16;96781.94;;;1.94;100.00
19023;BME280;35226;48.606;8.858;2023-03-04T11:36:11;96784.31;;;1.99;100.00
19023;BME280;35226;48.606;8.858;2023-03-04T11:38:43;96777.06;;;2.17;100.00
19023;BME280;35226;48.606;8.858;2023-03-04T11:41:33;96779.00;;;2.13;100.00
19023;BME280;35226;48.606;8.858;2023-03-04T11:44:00;96777.50;;;2.19;100.00
19023;BME280;35226;48.606;8.858;2023-03-04T11:56:52;96768.66;;;2.36;100.00
19023;BME280;35226;48.606;8.858;2023-03-04T11:59:35;96773.84;;;2.52;100.00
19023;BME280;35226;48.606;8.858;2023-03-04T12:02:13;96761.47;;;2.62;100.00
19023;BME280;35226;48.606;8.858;2023-03-04T12:10:59;96742.25;;;2.47;100.00
19023;BME280;35226;48.606;8.858;2023-03-04T12:24:32;96724.94;;;2.80;100.00
19023;BME280;35226;48.606;8.858;2023-03-04T12:29:51;96704.81;;;3.13;100.00
19023;BME280;35226;48.606;8.858;2023-03-04T12:41:24;96692.34;;;3.26;100.00
19023;BME280;35226;48.606;8.858;2023-03-04T12:49:38;96683.03;;;3.56;100.00
19023;BME280;35226;48.606;8.858;2023-03-04T12:54:56;96679.53;;;4.33;100.00
19023;BME280;35226;48.606;8.858;2023-03-04T12:57:25;96681.34;;;4.82;100.00
19023;BME280;35226;48.606;8.858;2023-03-04T13:00:08;96676.81;;;4.23;100.00
19023;BME280;35226;48.606;8.858;2023-03-04T13:10:21;96666.22;;;4.32;100.00
19023;BME280;35226;48.606;8.858;2023-03-04T13:12:59;96661.44;;;4.75;100.00
19023;BME280;35226;48.606;8.858;2023-03-04T13:15:36;96663.06;;;4.51;100.00
19023;BME280;35226;48.606;8.858;2023-03-04T13:18:31;96667.38;;;4.52;100.00
19023;BME280;35226;48.606;8.858;2023-03-04T13:21:30;96664.94;;;4.86;100.00
19023;BME280;35226;48.606;8.858;2023-03-04T13:23:57;96660.63;;;4.89;100.00
19023;BME280;35226;48.606;8.858;2023-03-04T13:26:33;96667.59;;;5.07;100.00
19023;BME280;35226;48.606;8.858;2023-03-04T13:29:30;96658.03;;;5.33;100.00
19023;BME280;35226;48.606;8.858;2023-03-04T13:32:01;96661.41;;;4.89;100.00
19023;BME280;35226;48.606;8.858;2023-03-04T13:35:00;96655.50;;;4.94;100.00
19023;BME280;35226;48.606;8.858;2023-03-04T13:40:33;96655.84;;;5.00;100.00
19023;BME280;35226;48.606;8.858;2023-03-04T13:43:23;96657.03;;;5.02;100.00
19023;BME280;35226;48.606;8.858;2023-03-04T13:45:49;96661.31;;;5.03;100.00
19023;BME280;35226;48.606;8.858;2023-03-04T13:48:27;96664.59;;;4.66;100.00
19023;BME280;35226;48.606;8.858;2023-03-04T13:50:54;96666.63;;;4.34;100.00
19023;BME280;35226;48.606;8.858;2023-03-04T13:56:06;96671.66;;;4.57;100.00
19023;BME280;35226;48.606;8.858;2023-03-04T13:58:33;96665.84;;;4.37;100.00
19023;BME280;35226;48.606;8.858;2023-03-04T14:00:59;96665.88;;;4.26;100.00
19023;BME280;35226;48.606;8.858;2023-03-04T14:03:28;96665.09;;;4.04;100.00
19023;BME280;35226;48.606;8.858;2023-03-04T14:06:22;96661.16;;;4.34;100.00
19023;BME280;35226;48.606;8.858;2023-03-04T14:08:48;96656.91;;;4.01;100.00
19023;BME280;35226;48.606;8.858;2023-03-04T14:11:22;96659.25;;;3.78;100.00
19023;BME280;35226;48.606;8.858;2023-03-04T14:13:48;96659.19;;;4.45;100.00
19023;BME280;35226;48.606;8.858;2023-03-04T14:16:22;96661.19;;;4.27;100.00
19023;BME280;35226;48.606;8.858;2023-03-04T14:19:02;96659.19;;;4.34;100.00
19023;BME280;35226;48.606;8.858;2023-03-04T14:21:29;96656.13;;;3.97;100.00
19023;BME280;35226;48.606;8.858;2023-03-04T14:24:06;96659.25;;;4.20;100.00